sensor_id;sensor_type;location;lat;lon;timestamp;P1;durP1;ratioP1;P2;durP2;ratioP2
60038;SDS011;45916;52.734;6.544;2023-07-29T00:00:42;18.23;;;15.98;;
60038;SDS011;45916;52.734;6.544;2023-07-29T00:03:08;19.63;;;15.60;;
60038;SDS011;45916;52.734;6.544;2023-07-29T00:05:35;19.35;;;14.63;;
60038;SDS011;45916;52.734;6.544;2023-07-29T00:08:01;20.75;;;17.15;;
60038;SDS011;45916;52.734;6.544;2023-07-29T00:10:27;20.55;;;15.27;;
60038;SDS011;45916;52.734;6.544;2023-07-29T00:12:53;20.55;;;16.58;;
60038;SDS011;45916;52.734;6.544;2023-07-29T00:15:19;19.92;;;15.07;;
60038;SDS011;45916;52.734;6.544;2023-07-29T00:17:45;20.65;;;15.93;;
60038;SDS011;45916;52.734;6.544;2023-07-29T00:20:10;19.20;;;15.63;;
60038;SDS011;45916;52.734;6.544;2023-07-29T00:22:36;21.65;;;15.80;;
60038;SDS011;45916;52.734;6.544;2023-07-29T00:25:02;21.70;;;16.95;;
60038;SDS011;45916;52.734;6.544;2023-07-29T00:27:27;18.02;;;15.52;;
60038;SDS011;45916;52.734;6.544;2023-07-29T00:29:53;19.52;;;14.48;;
60038;SDS011;45916;52.734;6.544;2023-07-29T00:32:19;21.27;;;16.15;;
60038;SDS011;45916;52.734;6.544;2023-07-29T00:34:44;20.85;;;15.98;;
60038;SDS011;45916;52.734;6.544;2023-07-29T00:37:10;20.80;;;16.40;;
60038;SDS011;45916;52.734;6.544;2023-07-29T00:39:36;19.90;;;15.63;;
60038;SDS011;45916;52.734;6.544;2023-07-29T00:42:02;22.42;;;17.30;;
60038;SDS011;45916;52.734;6.544;2023-07-29T00:44:28;20.83;;;16.13;;
60038;SDS011;45916;52.734;6.544;2023-07-29T00:46:56;18.70;;;15.77;;
60038;SDS011;45916;52.734;6.544;2023-07-29T00:49:22;20.08;;;16.00;;
60038;SDS011;45916;52.734;6.544;2023-07-29T00:51:48;17.92;;;15.20;;
60038;SDS011;45916;52.734;6.544;2023-07-29T00:54:14;19.77;;;13.85;;
60038;SDS011;45916;52.734;6.544;2023-07-29T00:56:40;21.23;;;15.77;;
60038;SDS011;45916;52.734;6.544;2023-07-29T00:59:06;19.75;;;14.95;;
60038;SDS011;45916;52.734;6.544;2023-07-29T01:01:32;20.88;;;16.48;;
60038;SDS011;45916;52.734;6.544;2023-07-29T01:03:58;16.00;;;13.82;;
60038;SDS011;45916;52.734;6.544;2023-07-29T01:09:06;19.58;;;15.98;;
60038;SDS011;45916;52.734;6.544;2023-07-29T01:17:17;18.98;;;14.05;;
60038;SDS011;45916;52.734;6.544;2023-07-29T01:22:36;19.15;;;14.88;;
60038;SDS011;45916;52.734;6.544;2023-07-29T01:25:03;17.53;;;14.13;;
60038;SDS011;45916;52.734;6.544;2023-07-29T01:27:29;18.77;;;15.27;;
60038;SDS011;45916;52.734;6.544;2023-07-29T01:29:56;20.33;;;15.02;;
60038;SDS011;45916;52.734;6.544;2023-07-29T01:34:56;18.80;;;13.40;;
60038;SDS011;45916;52.734;6.544;2023-07-29T01:37:30;21.58;;;14.85;;
60038;SDS011;45916;52.734;6.544;2023-07-29T01:39:59;18.83;;;14.13;;
60038;SDS011;45916;52.734;6.544;2023-07-29T01:42:25;18.00;;;14.82;;
60038;SDS011;45916;52.734;6.544;2023-07-29T01:44:52;18.05;;;14.18;;
60038;SDS011;45916;52.734;6.544;2023-07-29T01:47:18;18.92;;;15.13;;
60038;SDS011;45916;52.734;6.544;2023-07-29T01:49:43;16.00;;;13.77;;
60038;SDS011;45916;52.734;6.544;2023-07-29T01:52:09;16.67;;;13.55;;
60038;SDS011;45916;52.734;6.544;2023-07-29T01:54:35;17.52;;;13.70;;
60038;SDS011;45916;52.734;6.544;2023-07-29T01:57:00;18.70;;;14.43;;
60038;SDS011;45916;52.734;6.544;2023-07-29T01:59:26;16.67;;;14.38;;
60038;SDS011;45916;52.734;6.544;2023-07-29T02:01:52;16.50;;;12.63;;
60038;SDS011;45916;52.734;6.544;2023-07-29T02:04:17;15.65;;;13.23;;
60038;SDS011;45916;52.734;6.544;2023-07-29T02:06:43;15.80;;;12.23;;
60038;SDS011;45916;52.734;6.544;2023-07-29T02:09:09;17.63;;;12.45;;
60038;SDS011;45916;52.734;6.544;2023-07-29T02:11:34;14.23;;;11.68;;
60038;SDS011;45916;52.734;6.544;2023-07-29T02:14:00;13.23;;;11.80;;
60038;SDS011;45916;52.734;6.544;2023-07-29T02:16:26;16.65;;;11.40;;
60038;SDS011;45916;52.734;6.544;2023-07-29T02:18:51;14.55;;;10.20;;
60038;SDS011;45916;52.734;6.544;2023-07-29T02:21:17;11.23;;;8.98;;
60038;SDS011;45916;52.734;6.544;2023-07-29T02:23:43;15.20;;;9.88;;
60038;SDS011;45916;52.734;6.544;2023-07-29T02:26:08;13.13;;;9.10;;
60038;SDS011;45916;52.734;6.544;2023-07-29T02:28:34;11.60;;;8.80;;
60038;SDS011;45916;52.734;6.544;2023-07-29T02:31:16;12.13;;;9.40;;
60038;SDS011;45916;52.734;6.544;2023-07-29T02:33:45;10.63;;;8.07;;
60038;SDS011;45916;52.734;6.544;2023-07-29T02:36:11;11.50;;;8.98;;
60038;SDS011;45916;52.734;6.544;2023-07-29T02:38:38;11.55;;;9.10;;
60038;SDS011;45916;52.734;6.544;2023-07-29T02:41:04;12.80;;;9.23;;
60038;SDS011;45916;52.734;6.544;2023-07-29T02:43:29;12.40;;;7.95;;
60038;SDS011;45916;52.734;6.544;2023-07-29T02:45:55;12.55;;;8.88;;
60038;SDS011;45916;52.734;6.544;2023-07-29T02:48:21;11.80;;;7.65;;
60038;SDS011;45916;52.734;6.544;2023-07-29T02:50:46;13.63;;;7.97;;
60038;SDS011;45916;52.734;6.544;2023-07-29T02:53:13;11.85;;;8.25;;
60038;SDS011;45916;52.734;6.544;2023-07-29T02:55:42;9.70;;;7.60;;
60038;SDS011;45916;52.734;6.544;2023-07-29T02:58:07;12.65;;;7.82;;
60038;SDS011;45916;52.734;6.544;2023-07-29T03:00:33;10.70;;;7.45;;
60038;SDS011;45916;52.734;6.544;2023-07-29T03:02:59;10.98;;;7.88;;
60038;SDS011;45916;52.734;6.544;2023-07-29T03:05:28;11.00;;;7.95;;
60038;SDS011;45916;52.734;6.544;2023-07-29T03:07:54;11.30;;;7.68;;
60038;SDS011;45916;52.734;6.544;2023-07-29T03:10:19;10.43;;;7.82;;
60038;SDS011;45916;52.734;6.544;2023-07-29T03:12:46;11.07;;;8.13;;
60038;SDS011;45916;52.734;6.544;2023-07-29T03:15:11;11.88;;;7.00;;
60038;SDS011;45916;52.734;6.544;2023-07-29T03:17:37;11.75;;;7.35;;
60038;SDS011;45916;52.734;6.544;2023-07-29T03:20:03;9.65;;;7.18;;
60038;SDS011;45916;52.734;6.544;2023-07-29T03:22:30;8.80;;;5.78;;
60038;SDS011;45916;52.734;6.544;2023-07-29T03:24:55;9.10;;;6.70;;
60038;SDS011;45916;52.734;6.544;2023-07-29T03:27:21;8.60;;;5.93;;
60038;SDS011;45916;52.734;6.544;2023-07-29T03:29:47;9.45;;;6.53;;
60038;SDS011;45916;52.734;6.544;2023-07-29T03:32:12;9.13;;;6.00;;
60038;SDS011;45916;52.734;6.544;2023-07-29T03:34:38;8.35;;;5.60;;
60038;SDS011;45916;52.734;6.544;2023-07-29T03:37:05;9.35;;;6.13;;
60038;SDS011;45916;52.734;6.544;2023-07-29T03:39:31;9.48;;;6.55;;
60038;SDS011;45916;52.734;6.544;2023-07-29T03:41:57;10.00;;;6.00;;
60038;SDS011;45916;52.734;6.544;2023-07-29T03:44:23;10.73;;;7.03;;
60038;SDS011;45916;52.734;6.544;2023-07-29T03:46:49;8.80;;;6.30;;
60038;SDS011;45916;52.734;6.544;2023-07-29T03:49:14;11.43;;;6.43;;
60038;SDS011;45916;52.734;6.544;2023-07-29T03:51:40;10.25;;;6.80;;
60038;SDS011;45916;52.734;6.544;2023-07-29T03:54:06;9.00;;;6.40;;
60038;SDS011;45916;52.734;6.544;2023-07-29T03:56:32;7.90;;;5.78;;
60038;SDS011;45916;52.734;6.544;2023-07-29T03:59:06;12.50;;;6.63;;
60038;SDS011;45916;52.734;6.544;2023-07-29T04:01:32;8.73;;;6.15;;
60038;SDS011;45916;52.734;6.544;2023-07-29T04:03:58;10.70;;;6.47;;
60038;SDS011;45916;52.734;6.544;2023-07-29T04:06:24;10.38;;;6.93;;
60038;SDS011;45916;52.734;6.544;2023-07-29T04:08:50;9.18;;;6.10;;
60038;SDS011;45916;52.734;6.544;2023-07-29T04:11:16;8.98;;;6.60;;
60038;SDS011;45916;52.734;6.544;2023-07-29T04:13:42;9.32;;;6.07;;
60038;SDS011;45916;52.734;6.544;2023-07-29T04:16:07;8.63;;;5.70;;
60038;SDS011;45916;52.734;6.544;2023-07-29T04:18:33;9.32;;;6.97;;
60038;SDS011;45916;52.734;6.544;2023-07-29T04:20:58;10.25;;;6.57;;
60038;SDS011;45916;52.734;6.544;2023-07-29T04:23:24;9.40;;;6.20;;
60038;SDS011;45916;52.734;6.544;2023-07-29T04:25:50;10.30;;;7.30;;
60038;SDS011;45916;52.734;6.544;2023-07-29T04:28:16;9.88;;;6.25;;
60038;SDS011;45916;52.734;6.544;2023-07-29T04:30:42;7.70;;;5.78;;
60038;SDS011;45916;52.734;6.544;2023-07-29T04:33:08;9.55;;;5.97;;
60038;SDS011;45916;52.734;6.544;2023-07-29T04:35:33;10.40;;;6.35;;
60038;SDS011;45916;52.734;6.544;2023-07-29T04:37:59;10.15;;;6.32;;
60038;SDS011;45916;52.734;6.544;2023-07-29T04:40:25;8.30;;;5.90;;
60038;SDS011;45916;52.734;6.544;2023-07-29T04:42:51;10.68;;;6.10;;
60038;SDS011;45916;52.734;6.544;2023-07-29T04:45:16;9.15;;;6.00;;
60038;SDS011;45916;52.734;6.544;2023-07-29T04:47:42;10.20;;;5.78;;
60038;SDS011;45916;52.734;6.544;2023-07-29T04:50:08;8.80;;;6.55;;
60038;SDS011;45916;52.734;6.544;2023-07-29T04:52:34;10.73;;;6.38;;
60038;SDS011;45916;52.734;6.544;2023-07-29T04:55:00;7.47;;;5.22;;
60038;SDS011;45916;52.734;6.544;2023-07-29T04:57:25;8.52;;;5.32;;
60038;SDS011;45916;52.734;6.544;2023-07-29T04:59:51;8.63;;;5.95;;
60038;SDS011;45916;52.734;6.544;2023-07-29T05:02:17;8.00;;;5.30;;
60038;SDS011;45916;52.734;6.544;2023-07-29T05:04:42;8.38;;;5.43;;
60038;SDS011;45916;52.734;6.544;2023-07-29T05:07:08;10.02;;;6.07;;
60038;SDS011;45916;52.734;6.544;2023-07-29T05:09:34;7.88;;;5.57;;
60038;SDS011;45916;52.734;6.544;2023-07-29T05:11:59;9.52;;;6.10;;
60038;SDS011;45916;52.734;6.544;2023-07-29T05:14:25;8.82;;;5.88;;
60038;SDS011;45916;52.734;6.544;2023-07-29T05:16:51;9.93;;;5.57;;
60038;SDS011;45916;52.734;6.544;2023-07-29T05:19:17;9.60;;;5.72;;
60038;SDS011;45916;52.734;6.544;2023-07-29T05:21:43;9.52;;;6.45;;
60038;SDS011;45916;52.734;6.544;2023-07-29T05:24:08;9.50;;;6.97;;
60038;SDS011;45916;52.734;6.544;2023-07-29T05:26:34;11.07;;;6.72;;
60038;SDS011;45916;52.734;6.544;2023-07-29T05:29:00;11.60;;;6.75;;
60038;SDS011;45916;52.734;6.544;2023-07-29T05:31:25;9.85;;;7.22;;
60038;SDS011;45916;52.734;6.544;2023-07-29T05:33:51;11.63;;;6.93;;
60038;SDS011;45916;52.734;6.544;2023-07-29T05:36:17;11.95;;;6.97;;
60038;SDS011;45916;52.734;6.544;2023-07-29T05:38:42;9.73;;;6.30;;
60038;SDS011;45916;52.734;6.544;2023-07-29T05:41:08;10.23;;;6.75;;
60038;SDS011;45916;52.734;6.544;2023-07-29T05:43:34;11.13;;;7.28;;
60038;SDS011;45916;52.734;6.544;2023-07-29T05:45:59;11.15;;;6.93;;
60038;SDS011;45916;52.734;6.544;2023-07-29T05:48:25;11.68;;;7.50;;
60038;SDS011;45916;52.734;6.544;2023-07-29T05:50:51;12.57;;;7.13;;
60038;SDS011;45916;52.734;6.544;2023-07-29T05:53:17;12.68;;;8.05;;
60038;SDS011;45916;52.734;6.544;2023-07-29T05:55:42;12.95;;;7.80;;
60038;SDS011;45916;52.734;6.544;2023-07-29T05:58:08;12.07;;;7.85;;
60038;SDS011;45916;52.734;6.544;2023-07-29T06:00:34;12.77;;;7.75;;
60038;SDS011;45916;52.734;6.544;2023-07-29T06:03:00;10.57;;;6.55;;
60038;SDS011;45916;52.734;6.544;2023-07-29T06:05:26;9.38;;;6.97;;
60038;SDS011;45916;52.734;6.544;2023-07-29T06:07:51;10.73;;;7.32;;
60038;SDS011;45916;52.734;6.544;2023-07-29T06:10:17;12.50;;;7.03;;
60038;SDS011;45916;52.734;6.544;2023-07-29T06:12:43;10.18;;;7.20;;
60038;SDS011;45916;52.734;6.544;2023-07-29T06:15:12;11.38;;;7.55;;
60038;SDS011;45916;52.734;6.544;2023-07-29T06:17:39;10.52;;;7.18;;
60038;SDS011;45916;52.734;6.544;2023-07-29T06:20:06;11.32;;;6.65;;
60038;SDS011;45916;52.734;6.544;2023-07-29T06:22:32;11.27;;;7.03;;
60038;SDS011;45916;52.734;6.544;2023-07-29T06:24:57;12.35;;;7.63;;
60038;SDS011;45916;52.734;6.544;2023-07-29T06:27:23;10.43;;;6.80;;
60038;SDS011;45916;52.734;6.544;2023-07-29T06:29:50;10.50;;;6.88;;
60038;SDS011;45916;52.734;6.544;2023-07-29T06:32:16;14.43;;;6.85;;
60038;SDS011;45916;52.734;6.544;2023-07-29T06:34:42;10.07;;;7.20;;
60038;SDS011;45916;52.734;6.544;2023-07-29T06:37:07;11.85;;;7.10;;
60038;SDS011;45916;52.734;6.544;2023-07-29T06:39:33;11.80;;;7.93;;
60038;SDS011;45916;52.734;6.544;2023-07-29T06:41:59;9.73;;;6.32;;
60038;SDS011;45916;52.734;6.544;2023-07-29T06:44:25;11.32;;;7.00;;
60038;SDS011;45916;52.734;6.544;2023-07-29T06:46:50;10.07;;;5.45;;
60038;SDS011;45916;52.734;6.544;2023-07-29T06:49:16;8.40;;;5.95;;
60038;SDS011;45916;52.734;6.544;2023-07-29T06:51:41;12.27;;;6.20;;
60038;SDS011;45916;52.734;6.544;2023-07-29T06:54:07;8.10;;;5.78;;
60038;SDS011;45916;52.734;6.544;2023-07-29T06:56:33;10.93;;;5.85;;
60038;SDS011;45916;52.734;6.544;2023-07-29T06:58:58;8.93;;;5.68;;
60038;SDS011;45916;52.734;6.544;2023-07-29T07:01:24;8.35;;;5.88;;
60038;SDS011;45916;52.734;6.544;2023-07-29T07:03:50;8.90;;;5.43;;
60038;SDS011;45916;52.734;6.544;2023-07-29T07:06:19;9.48;;;6.00;;
60038;SDS011;45916;52.734;6.544;2023-07-29T07:08:49;8.80;;;6.05;;
60038;SDS011;45916;52.734;6.544;2023-07-29T07:11:15;9.95;;;6.32;;
60038;SDS011;45916;52.734;6.544;2023-07-29T07:13:41;8.60;;;5.85;;
60038;SDS011;45916;52.734;6.544;2023-07-29T07:16:07;10.75;;;5.97;;
60038;SDS011;45916;52.734;6.544;2023-07-29T07:18:32;9.07;;;5.82;;
60038;SDS011;45916;52.734;6.544;2023-07-29T07:20:58;7.32;;;5.05;;
60038;SDS011;45916;52.734;6.544;2023-07-29T07:23:23;8.30;;;5.43;;
60038;SDS011;45916;52.734;6.544;2023-07-29T07:25:49;8.23;;;4.93;;
60038;SDS011;45916;52.734;6.544;2023-07-29T07:28:15;9.27;;;5.22;;
60038;SDS011;45916;52.734;6.544;2023-07-29T07:30:40;7.85;;;4.88;;
60038;SDS011;45916;52.734;6.544;2023-07-29T07:33:06;7.60;;;4.22;;
60038;SDS011;45916;52.734;6.544;2023-07-29T07:35:32;8.10;;;4.72;;
60038;SDS011;45916;52.734;6.544;2023-07-29T07:37:58;7.40;;;4.55;;
60038;SDS011;45916;52.734;6.544;2023-07-29T07:40:26;7.25;;;4.43;;
60038;SDS011;45916;52.734;6.544;2023-07-29T07:42:52;8.05;;;4.50;;
60038;SDS011;45916;52.734;6.544;2023-07-29T07:45:18;7.13;;;4.15;;
60038;SDS011;45916;52.734;6.544;2023-07-29T07:47:44;7.03;;;4.40;;
60038;SDS011;45916;52.734;6.544;2023-07-29T07:50:10;6.80;;;3.90;;
60038;SDS011;45916;52.734;6.544;2023-07-29T07:52:36;6.15;;;3.47;;
60038;SDS011;45916;52.734;6.544;2023-07-29T07:55:01;7.55;;;3.85;;
60038;SDS011;45916;52.734;6.544;2023-07-29T07:57:27;7.32;;;4.45;;
60038;SDS011;45916;52.734;6.544;2023-07-29T07:59:53;8.80;;;4.53;;
60038;SDS011;45916;52.734;6.544;2023-07-29T08:02:18;7.00;;;4.43;;
60038;SDS011;45916;52.734;6.544;2023-07-29T08:04:45;8.48;;;4.60;;
60038;SDS011;45916;52.734;6.544;2023-07-29T08:07:11;8.15;;;4.65;;
60038;SDS011;45916;52.734;6.544;2023-07-29T08:09:36;9.27;;;4.82;;
60038;SDS011;45916;52.734;6.544;2023-07-29T08:12:02;6.68;;;4.22;;
60038;SDS011;45916;52.734;6.544;2023-07-29T08:14:28;8.38;;;4.25;;
60038;SDS011;45916;52.734;6.544;2023-07-29T08:16:53;6.72;;;4.03;;
60038;SDS011;45916;52.734;6.544;2023-07-29T08:19:19;7.78;;;4.15;;
60038;SDS011;45916;52.734;6.544;2023-07-29T08:21:45;7.97;;;4.07;;
60038;SDS011;45916;52.734;6.544;2023-07-29T08:24:10;7.28;;;4.00;;
60038;SDS011;45916;52.734;6.544;2023-07-29T08:26:36;7.10;;;4.57;;
60038;SDS011;45916;52.734;6.544;2023-07-29T08:29:02;7.50;;;4.35;;
60038;SDS011;45916;52.734;6.544;2023-07-29T08:31:27;6.85;;;3.65;;
60038;SDS011;45916;52.734;6.544;2023-07-29T08:33:53;8.05;;;3.67;;
60038;SDS011;45916;52.734;6.544;2023-07-29T08:36:19;5.40;;;3.25;;
60038;SDS011;45916;52.734;6.544;2023-07-29T08:38:44;7.10;;;3.95;;
60038;SDS011;45916;52.734;6.544;2023-07-29T08:41:13;6.90;;;3.70;;
60038;SDS011;45916;52.734;6.544;2023-07-29T08:46:45;6.03;;;3.13;;
60038;SDS011;45916;52.734;6.544;2023-07-29T08:49:11;7.15;;;3.35;;
60038;SDS011;45916;52.734;6.544;2023-07-29T08:51:43;5.78;;;3.30;;
60038;SDS011;45916;52.734;6.544;2023-07-29T08:54:11;6.47;;;3.60;;
60038;SDS011;45916;52.734;6.544;2023-07-29T08:56:37;6.82;;;3.45;;
60038;SDS011;45916;52.734;6.544;2023-07-29T08:59:05;5.70;;;2.80;;
60038;SDS011;45916;52.734;6.544;2023-07-29T09:01:33;8.70;;;3.20;;
60038;SDS011;45916;52.734;6.544;2023-07-29T09:03:59;5.50;;;2.53;;
60038;SDS011;45916;52.734;6.544;2023-07-29T09:06:25;5.63;;;2.70;;
60038;SDS011;45916;52.734;6.544;2023-07-29T09:08:53;5.53;;;2.72;;
60038;SDS011;45916;52.734;6.544;2023-07-29T09:11:21;5.53;;;2.38;;
60038;SDS011;45916;52.734;6.544;2023-07-29T09:13:47;6.28;;;2.60;;
60038;SDS011;45916;52.734;6.544;2023-07-29T09:16:19;5.97;;;2.20;;
60038;SDS011;45916;52.734;6.544;2023-07-29T09:18:49;4.78;;;2.13;;
60038;SDS011;45916;52.734;6.544;2023-07-29T09:21:25;7.28;;;2.22;;
60038;SDS011;45916;52.734;6.544;2023-07-29T09:23:54;5.50;;;2.25;;
60038;SDS011;45916;52.734;6.544;2023-07-29T09:26:26;6.13;;;2.20;;
60038;SDS011;45916;52.734;6.544;2023-07-29T09:28:54;4.88;;;1.83;;
60038;SDS011;45916;52.734;6.544;2023-07-29T09:31:24;5.45;;;2.10;;
60038;SDS011;45916;52.734;6.544;2023-07-29T09:33:57;6.05;;;2.70;;
60038;SDS011;45916;52.734;6.544;2023-07-29T09:36:24;6.75;;;2.10;;
60038;SDS011;45916;52.734;6.544;2023-07-29T09:38:54;7.07;;;2.17;;
60038;SDS011;45916;52.734;6.544;2023-07-29T09:41:24;5.78;;;2.55;;
60038;SDS011;45916;52.734;6.544;2023-07-29T09:44:00;9.48;;;2.88;;
60038;SDS011;45916;52.734;6.544;2023-07-29T09:46:33;6.30;;;2.47;;
60038;SDS011;45916;52.734;6.544;2023-07-29T09:49:04;6.85;;;2.10;;
60038;SDS011;45916;52.734;6.544;2023-07-29T09:51:31;6.40;;;2.58;;
60038;SDS011;45916;52.734;6.544;2023-07-29T09:54:02;7.60;;;2.75;;
60038;SDS011;45916;52.734;6.544;2023-07-29T09:56:28;5.68;;;2.92;;
60038;SDS011;45916;52.734;6.544;2023-07-29T09:58:55;7.72;;;3.55;;
60038;SDS011;45916;52.734;6.544;2023-07-29T10:01:22;6.72;;;2.92;;
60038;SDS011;45916;52.734;6.544;2023-07-29T10:03:48;6.38;;;3.20;;
60038;SDS011;45916;52.734;6.544;2023-07-29T10:06:15;9.07;;;3.63;;
60038;SDS011;45916;52.734;6.544;2023-07-29T10:08:41;8.13;;;3.90;;
60038;SDS011;45916;52.734;6.544;2023-07-29T10:11:08;9.27;;;5.07;;
60038;SDS011;45916;52.734;6.544;2023-07-29T10:13:36;8.80;;;4.22;;
60038;SDS011;45916;52.734;6.544;2023-07-29T10:16:03;9.38;;;3.65;;
60038;SDS011;45916;52.734;6.544;2023-07-29T10:18:30;6.28;;;2.92;;
60038;SDS011;45916;52.734;6.544;2023-07-29T10:20:57;5.87;;;3.10;;
60038;SDS011;45916;52.734;6.544;2023-07-29T10:23:24;7.28;;;3.25;;
60038;SDS011;45916;52.734;6.544;2023-07-29T10:25:56;6.45;;;3.60;;
60038;SDS011;45916;52.734;6.544;2023-07-29T10:28:29;6.25;;;2.92;;
60038;SDS011;45916;52.734;6.544;2023-07-29T10:30:56;11.50;;;4.03;;
60038;SDS011;45916;52.734;6.544;2023-07-29T10:33:23;7.30;;;3.63;;
60038;SDS011;45916;52.734;6.544;2023-07-29T10:35:49;5.47;;;3.03;;
60038;SDS011;45916;52.734;6.544;2023-07-29T10:38:16;8.52;;;4.00;;
60038;SDS011;45916;52.734;6.544;2023-07-29T10:40:46;6.63;;;3.88;;
60038;SDS011;45916;52.734;6.544;2023-07-29T10:43:18;6.63;;;4.00;;
60038;SDS011;45916;52.734;6.544;2023-07-29T10:45:49;5.65;;;4.55;;
60038;SDS011;45916;52.734;6.544;2023-07-29T10:51:21;6.18;;;5.05;;
60038;SDS011;45916;52.734;6.544;2023-07-29T10:54:01;7.30;;;5.10;;
60038;SDS011;45916;52.734;6.544;2023-07-29T10:56:41;7.13;;;5.90;;
60038;SDS011;45916;52.734;6.544;2023-07-29T11:01:37;7.07;;;3.95;;
60038;SDS011;45916;52.734;6.544;2023-07-29T11:15:04;7.13;;;4.68;;
60038;SDS011;45916;52.734;6.544;2023-07-29T11:17:42;6.22;;;4.32;;
60038;SDS011;45916;52.734;6.544;2023-07-29T11:20:09;9.70;;;7.03;;
60038;SDS011;45916;52.734;6.544;2023-07-29T11:22:36;6.30;;;5.15;;
60038;SDS011;45916;52.734;6.544;2023-07-29T11:25:03;7.55;;;3.58;;
60038;SDS011;45916;52.734;6.544;2023-07-29T11:27:30;5.72;;;3.30;;
60038;SDS011;45916;52.734;6.544;2023-07-29T11:29:59;7.43;;;3.47;;
60038;SDS011;45916;52.734;6.544;2023-07-29T11:32:27;6.10;;;3.33;;
60038;SDS011;45916;52.734;6.544;2023-07-29T11:34:53;5.53;;;2.72;;
60038;SDS011;45916;52.734;6.544;2023-07-29T11:37:19;6.97;;;2.97;;
60038;SDS011;45916;52.734;6.544;2023-07-29T11:39:46;5.97;;;2.72;;
60038;SDS011;45916;52.734;6.544;2023-07-29T11:42:13;6.47;;;2.92;;
60038;SDS011;45916;52.734;6.544;2023-07-29T11:44:39;5.05;;;2.42;;
60038;SDS011;45916;52.734;6.544;2023-07-29T11:47:06;5.75;;;2.40;;
60038;SDS011;45916;52.734;6.544;2023-07-29T11:49:36;6.78;;;2.10;;
60038;SDS011;45916;52.734;6.544;2023-07-29T11:52:05;4.85;;;2.03;;
60038;SDS011;45916;52.734;6.544;2023-07-29T11:54:32;7.53;;;2.95;;
60038;SDS011;45916;52.734;6.544;2023-07-29T11:57:00;5.90;;;2.55;;
60038;SDS011;45916;52.734;6.544;2023-07-29T11:59:27;6.70;;;2.63;;
60038;SDS011;45916;52.734;6.544;2023-07-29T12:01:53;5.78;;;2.65;;
60038;SDS011;45916;52.734;6.544;2023-07-29T12:04:19;5.28;;;2.25;;
60038;SDS011;45916;52.734;6.544;2023-07-29T12:06:46;6.00;;;3.15;;
60038;SDS011;45916;52.734;6.544;2023-07-29T12:09:12;5.78;;;2.35;;
60038;SDS011;45916;52.734;6.544;2023-07-29T12:11:38;6.63;;;2.90;;
60038;SDS011;45916;52.734;6.544;2023-07-29T12:14:07;5.60;;;2.60;;
60038;SDS011;45916;52.734;6.544;2023-07-29T12:16:40;5.50;;;2.40;;
60038;SDS011;45916;52.734;6.544;2023-07-29T12:19:11;7.28;;;2.70;;
60038;SDS011;45916;52.734;6.544;2023-07-29T12:21:38;5.40;;;2.60;;
60038;SDS011;45916;52.734;6.544;2023-07-29T12:24:06;6.43;;;2.83;;
60038;SDS011;45916;52.734;6.544;2023-07-29T12:26:32;5.05;;;2.75;;
60038;SDS011;45916;52.734;6.544;2023-07-29T12:28:59;6.88;;;3.25;;
60038;SDS011;45916;52.734;6.544;2023-07-29T12:31:31;6.15;;;2.70;;
60038;SDS011;45916;52.734;6.544;2023-07-29T12:33:58;5.97;;;2.67;;
60038;SDS011;45916;52.734;6.544;2023-07-29T12:36:27;5.30;;;2.55;;
60038;SDS011;45916;52.734;6.544;2023-07-29T12:39:06;6.60;;;2.83;;
60038;SDS011;45916;52.734;6.544;2023-07-29T12:41:44;7.75;;;2.97;;
60038;SDS011;45916;52.734;6.544;2023-07-29T12:44:10;5.78;;;2.70;;
60038;SDS011;45916;52.734;6.544;2023-07-29T12:46:36;6.15;;;2.42;;
60038;SDS011;45916;52.734;6.544;2023-07-29T12:49:02;6.13;;;2.67;;
60038;SDS011;45916;52.734;6.544;2023-07-29T12:51:27;6.50;;;2.90;;
60038;SDS011;45916;52.734;6.544;2023-07-29T12:53:53;5.78;;;2.78;;
60038;SDS011;45916;52.734;6.544;2023-07-29T12:56:19;6.78;;;2.42;;
60038;SDS011;45916;52.734;6.544;2023-07-29T12:58:45;5.75;;;2.58;;
60038;SDS011;45916;52.734;6.544;2023-07-29T13:01:11;8.38;;;3.05;;
60038;SDS011;45916;52.734;6.544;2023-07-29T13:03:42;6.50;;;2.40;;
60038;SDS011;45916;52.734;6.544;2023-07-29T13:06:11;7.05;;;3.00;;
60038;SDS011;45916;52.734;6.544;2023-07-29T13:08:37;5.80;;;2.60;;
60038;SDS011;45916;52.734;6.544;2023-07-29T13:11:03;5.60;;;2.55;;
60038;SDS011;45916;52.734;6.544;2023-07-29T13:13:29;6.95;;;3.20;;
60038;SDS011;45916;52.734;6.544;2023-07-29T13:15:56;7.00;;;3.22;;
60038;SDS011;45916;52.734;6.544;2023-07-29T13:18:22;7.78;;;3.22;;
60038;SDS011;45916;52.734;6.544;2023-07-29T13:20:47;8.23;;;3.20;;
60038;SDS011;45916;52.734;6.544;2023-07-29T13:23:13;6.00;;;3.08;;
60038;SDS011;45916;52.734;6.544;2023-07-29T13:25:40;4.97;;;2.47;;
60038;SDS011;45916;52.734;6.544;2023-07-29T13:28:06;6.45;;;3.08;;
60038;SDS011;45916;52.734;6.544;2023-07-29T13:30:33;5.85;;;2.78;;
60038;SDS011;45916;52.734;6.544;2023-07-29T13:32:58;6.55;;;2.45;;
60038;SDS011;45916;52.734;6.544;2023-07-29T13:35:24;5.88;;;2.50;;
60038;SDS011;45916;52.734;6.544;2023-07-29T13:37:50;6.18;;;2.88;;
60038;SDS011;45916;52.734;6.544;2023-07-29T13:40:16;6.93;;;2.30;;
60038;SDS011;45916;52.734;6.544;2023-07-29T13:42:41;6.20;;;2.60;;
60038;SDS011;45916;52.734;6.544;2023-07-29T13:45:07;4.07;;;1.90;;
60038;SDS011;45916;52.734;6.544;2023-07-29T13:47:33;10.00;;;2.75;;
60038;SDS011;45916;52.734;6.544;2023-07-29T13:49:59;6.53;;;2.13;;
60038;SDS011;45916;52.734;6.544;2023-07-29T13:52:25;6.72;;;2.55;;
60038;SDS011;45916;52.734;6.544;2023-07-29T13:54:51;5.10;;;1.73;;
60038;SDS011;45916;52.734;6.544;2023-07-29T13:57:17;5.15;;;2.38;;
60038;SDS011;45916;52.734;6.544;2023-07-29T13:59:43;5.40;;;2.20;;
60038;SDS011;45916;52.734;6.544;2023-07-29T14:02:08;5.13;;;2.13;;
60038;SDS011;45916;52.734;6.544;2023-07-29T14:04:34;6.70;;;2.40;;
60038;SDS011;45916;52.734;6.544;2023-07-29T14:07:00;6.28;;;2.53;;
60038;SDS011;45916;52.734;6.544;2023-07-29T14:09:26;6.35;;;3.75;;
60038;SDS011;45916;52.734;6.544;2023-07-29T14:11:53;7.40;;;2.95;;
60038;SDS011;45916;52.734;6.544;2023-07-29T14:14:19;5.55;;;3.38;;
60038;SDS011;45916;52.734;6.544;2023-07-29T14:16:45;7.95;;;3.60;;
60038;SDS011;45916;52.734;6.544;2023-07-29T14:19:12;6.18;;;3.17;;
60038;SDS011;45916;52.734;6.544;2023-07-29T14:21:38;6.57;;;2.88;;
60038;SDS011;45916;52.734;6.544;2023-07-29T14:24:05;5.57;;;3.25;;
60038;SDS011;45916;52.734;6.544;2023-07-29T14:26:31;5.38;;;3.17;;
60038;SDS011;45916;52.734;6.544;2023-07-29T14:28:56;5.55;;;3.47;;
60038;SDS011;45916;52.734;6.544;2023-07-29T14:31:22;6.78;;;3.60;;
60038;SDS011;45916;52.734;6.544;2023-07-29T14:33:48;6.00;;;4.00;;
60038;SDS011;45916;52.734;6.544;2023-07-29T14:36:15;6.88;;;4.65;;
60038;SDS011;45916;52.734;6.544;2023-07-29T14:38:43;7.65;;;4.97;;
60038;SDS011;45916;52.734;6.544;2023-07-29T14:41:08;9.10;;;5.65;;
60038;SDS011;45916;52.734;6.544;2023-07-29T14:43:34;9.88;;;6.78;;
60038;SDS011;45916;52.734;6.544;2023-07-29T14:46:01;9.32;;;6.75;;
60038;SDS011;45916;52.734;6.544;2023-07-29T14:48:27;8.75;;;7.32;;
60038;SDS011;45916;52.734;6.544;2023-07-29T14:50:53;9.18;;;7.38;;
60038;SDS011;45916;52.734;6.544;2023-07-29T14:53:19;9.50;;;6.40;;
60038;SDS011;45916;52.734;6.544;2023-07-29T14:55:45;8.82;;;7.30;;
60038;SDS011;45916;52.734;6.544;2023-07-29T14:58:10;8.82;;;7.32;;
60038;SDS011;45916;52.734;6.544;2023-07-29T15:00:36;7.57;;;6.28;;
60038;SDS011;45916;52.734;6.544;2023-07-29T15:03:02;8.05;;;5.53;;
60038;SDS011;45916;52.734;6.544;2023-07-29T15:05:28;6.43;;;5.10;;
60038;SDS011;45916;52.734;6.544;2023-07-29T15:07:54;6.25;;;4.55;;
60038;SDS011;45916;52.734;6.544;2023-07-29T15:10:20;8.40;;;5.10;;